Time;durP1;ratioP1;P1;durP2;ratioP2;P2;SDS_P1;SDS_P2;PMS_P1;PMS_P2;Temp;Humidity;BMP_temperature;BMP_pressure;BME280_temperature;BME280_humidity;BME280_pressure;Samples;Min_cycle;Max_cycle;Signal;HPM_P1;HPM_P2
2023/12/07 00:01:54;;;;;;;2.75;2.13;;;21.60;51.50;;;;;;4859858;28;88606;-88
2023/12/07 00:04:19;;;;;;;4.50;2.25;;;21.60;51.50;;;;;;4877549;28;88371;-89
2023/12/07 00:06:45;;;;;;;4.38;2.20;;;21.60;51.60;;;;;;4859544;28;88662;-88
2023/12/07 00:09:11;;;;;;;3.75;2.00;;;21.60;51.60;;;;;;4857249;28;88123;-89
2023/12/07 00:11:36;;;;;;;3.20;2.35;;;21.60;51.70;;;;;;4857699;28;88732;-89
2023/12/07 00:14:05;;;;;;;2.88;2.05;;;21.60;51.70;;;;;;4879873;28;88594;-88
2023/12/07 00:16:31;;;;;;;3.45;1.95;;;21.50;51.60;;;;;;4854648;28;89424;-87
2023/12/07 00:18:57;;;;;;;5.10;2.60;;;21.50;51.60;;;;;;4844654;28;87827;-88
2023/12/07 00:21:23;;;;;;;3.72;2.05;;;21.50;51.60;;;;;;4850869;28;87581;-88
2023/12/07 00:23:50;;;;;;;2.88;1.88;;;21.50;51.60;;;;;;4861011;28;88247;-88
2023/12/07 00:26:16;;;;;;;2.58;2.08;;;21.50;51.70;;;;;;4859143;28;90390;-88
2023/12/07 00:28:42;;;;;;;3.90;2.22;;;21.40;51.70;;;;;;4861687;28;88222;-87
2023/12/07 00:31:09;;;;;;;3.10;2.05;;;21.40;51.70;;;;;;4876677;28;90102;-87
2023/12/07 00:33:34;;;;;;;3.55;2.22;;;21.40;51.70;;;;;;4876439;28;88309;-88
2023/12/07 00:36:00;;;;;;;2.22;1.88;;;21.40;51.70;;;;;;4878524;28;87922;-87
2023/12/07 00:38:26;;;;;;;3.53;1.90;;;21.30;51.50;;;;;;4879023;28;88427;-89
2023/12/07 00:40:52;;;;;;;2.75;2.08;;;21.40;51.70;;;;;;4862661;28;86589;-88
2023/12/07 00:43:18;;;;;;;2.97;2.17;;;21.30;51.70;;;;;;4861618;28;87703;-88
2023/12/07 00:45:46;;;;;;;2.95;2.17;;;21.30;51.70;;;;;;4859635;28;89465;-87
2023/12/07 00:48:14;;;;;;;2.95;2.05;;;21.30;51.80;;;;;;4859222;28;88278;-88
2023/12/07 00:50:40;;;;;;;2.75;2.20;;;21.30;51.80;;;;;;4877411;28;87778;-87
2023/12/07 00:53:06;;;;;;;2.60;2.00;;;21.30;51.60;;;;;;4858496;28;88324;-89
2023/12/07 00:55:32;;;;;;;2.85;1.90;;;21.30;51.80;;;;;;4860357;28;90821;-88
2023/12/07 00:58:00;;;;;;;3.05;2.45;;;21.20;51.90;;;;;;4879431;28;87468;-88
2023/12/07 01:00:25;;;;;;;5.28;2.10;;;21.20;51.80;;;;;;4860227;28;88169;-88
2023/12/07 01:02:51;;;;;;;4.30;2.15;;;21.20;51.80;;;;;;4878789;28;89251;-88
2023/12/07 01:05:17;;;;;;;2.35;2.03;;;21.20;51.80;;;;;;4857409;28;89442;-87
2023/12/07 01:07:45;;;;;;;3.45;2.30;;;21.20;51.80;;;;;;4863198;28;87669;-88
2023/12/07 01:10:11;;;;;;;4.20;2.20;;;21.20;51.70;;;;;;4844495;28;90380;-89
2023/12/07 01:12:36;;;;;;;3.70;2.28;;;21.20;51.80;;;;;;4874632;28;90312;-88
2023/12/07 01:15:03;;;;;;;2.75;1.98;;;21.20;51.90;;;;;;4882798;28;89968;-88
2023/12/07 01:17:29;;;;;;;2.65;2.05;;;21.10;51.90;;;;;;4881694;28;87913;-87
2023/12/07 01:19:54;;;;;;;3.10;2.05;;;21.10;51.90;;;;;;4860325;28;88474;-88
2023/12/07 01:22:20;;;;;;;2.88;2.15;;;21.10;51.70;;;;;;4877684;28;89240;-90
2023/12/07 01:24:46;;;;;;;2.97;2.35;;;21.10;51.90;;;;;;4859631;28;88726;-87
2023/12/07 01:27:12;;;;;;;3.55;2.05;;;21.10;51.90;;;;;;4873632;28;87315;-88
2023/12/07 01:29:38;;;;;;;3.05;1.92;;;21.10;51.80;;;;;;4862211;28;90285;-87
2023/12/07 01:32:05;;;;;;;3.60;1.98;;;21.00;51.80;;;;;;4876823;28;87454;-88
2023/12/07 01:34:32;;;;;;;2.78;1.92;;;21.00;51.70;;;;;;4858830;28;89741;-87
2023/12/07 01:36:58;;;;;;;3.58;2.05;;;21.00;52.00;;;;;;4856135;28;88692;-89
2023/12/07 01:39:24;;;;;;;3.42;2.50;;;21.00;52.00;;;;;;4876326;28;87081;-89
2023/12/07 01:41:51;;;;;;;3.53;2.22;;;21.00;52.00;;;;;;4861183;28;89736;-87
2023/12/07 01:44:17;;;;;;;3.17;2.25;;;21.00;52.00;;;;;;4876513;28;88146;-89
2023/12/07 01:46:43;;;;;;;3.45;1.90;;;21.00;51.90;;;;;;4850052;28;87536;-88
2023/12/07 01:49:11;;;;;;;2.17;1.85;;;21.00;51.90;;;;;;4874966;28;87413;-88
2023/12/07 01:51:37;;;;;;;2.97;2.08;;;20.90;52.00;;;;;;4857478;28;89439;-86
2023/12/07 01:54:03;;;;;;;2.88;2.17;;;20.90;51.90;;;;;;4858487;28;91118;-86
2023/12/07 01:56:30;;;;;;;2.97;2.22;;;20.90;52.20;;;;;;4857768;28;86866;-87
2023/12/07 01:58:58;;;;;;;2.83;1.95;;;20.90;52.00;;;;;;4858810;28;89104;-89
2023/12/07 02:01:24;;;;;;;2.55;2.28;;;20.90;52.00;;;;;;4860111;28;91525;-88
2023/12/07 02:03:51;;;;;;;4.03;1.98;;;20.80;52.00;;;;;;4858784;28;87814;-87
2023/12/07 02:06:17;;;;;;;2.38;1.90;;;20.80;52.20;;;;;;4867914;28;88275;-89
2023/12/07 02:08:43;;;;;;;2.58;1.98;;;20.80;52.00;;;;;;4861500;28;87499;-87
2023/12/07 02:11:09;;;;;;;2.72;2.50;;;20.80;52.00;;;;;;4877039;28;87505;-88
2023/12/07 02:13:40;;;;;;;2.03;1.83;;;20.80;51.90;;;;;;4877388;28;87586;-88
2023/12/07 02:16:15;;;;;;;2.47;2.08;;;20.80;52.10;;;;;;4859660;28;87800;-87
2023/12/07 02:18:55;;;;;;;2.58;2.30;;;20.80;52.00;;;;;;4878283;28;86897;-88
2023/12/07 02:21:48;;;;;;;1.90;1.70;;;20.80;52.00;;;;;;4863474;28;89797;-88
2023/12/07 02:24:21;;;;;;;2.20;2.00;;;20.80;52.00;;;;;;4881863;28;87468;-88
2023/12/07 02:26:48;;;;;;;2.70;2.10;;;20.80;52.00;;;;;;4880552;28;88995;-88
2023/12/07 02:29:14;;;;;;;2.50;1.88;;;20.80;51.90;;;;;;4860641;28;88586;-88
2023/12/07 02:31:40;;;;;;;2.05;1.85;;;20.70;52.00;;;;;;4864396;28;90757;-88
2023/12/07 02:34:09;;;;;;;2.28;2.08;;;20.70;51.90;;;;;;4879442;28;88365;-88
2023/12/07 02:36:38;;;;;;;1.80;1.48;;;20.70;52.10;;;;;;4860311;28;87433;-88
2023/12/07 02:39:05;;;;;;;2.40;1.92;;;20.70;52.30;;;;;;4885478;28;87280;-88
2023/12/07 02:41:32;;;;;;;2.45;1.88;;;20.70;52.00;;;;;;4874493;28;90742;-89
2023/12/07 02:44:00;;;;;;;2.30;2.10;;;20.70;52.00;;;;;;4863636;28;88829;-89
2023/12/07 02:46:26;;;;;;;3.93;2.30;;;20.70;51.90;;;;;;4864212;28;87458;-90
2023/12/07 02:48:52;;;;;;;3.03;2.00;;;20.60;52.30;;;;;;4884749;28;87213;-89
2023/12/07 02:51:18;;;;;;;2.65;2.00;;;20.60;52.40;;;;;;4862469;28;91067;-88
2023/12/07 02:53:44;;;;;;;2.63;2.05;;;20.60;52.20;;;;;;4879138;28;88351;-88
2023/12/07 02:56:10;;;;;;;2.20;1.95;;;20.60;52.40;;;;;;4872671;28;87682;-89
2023/12/07 02:58:36;;;;;;;2.60;1.50;;;20.60;52.40;;;;;;4863266;28;89072;-88
2023/12/07 03:01:01;;;;;;;4.18;1.90;;;20.60;52.40;;;;;;4883283;28;87845;-88
2023/12/07 03:03:27;;;;;;;2.67;2.08;;;20.60;52.50;;;;;;4873411;28;88250;-89
2023/12/07 03:05:53;;;;;;;2.75;1.90;;;20.60;52.40;;;;;;4870379;28;88280;-88
2023/12/07 03:08:19;;;;;;;2.88;1.90;;;20.60;52.50;;;;;;4864929;28;87651;-89
2023/12/07 03:10:44;;;;;;;2.78;2.05;;;20.50;52.40;;;;;;4862162;28;88536;-87
2023/12/07 03:13:10;;;;;;;2.65;1.83;;;20.50;52.40;;;;;;4866703;28;88716;-87
2023/12/07 03:15:36;;;;;;;2.25;1.95;;;20.50;52.50;;;;;;4884195;28;89080;-88
2023/12/07 03:18:01;;;;;;;2.78;2.15;;;20.50;52.60;;;;;;4867093;28;88392;-88
2023/12/07 03:20:27;;;;;;;1.95;1.83;;;20.50;52.50;;;;;;4880545;28;88548;-90
2023/12/07 03:22:53;;;;;;;2.38;1.90;;;20.50;52.40;;;;;;4860322;28;88278;-89
2023/12/07 03:25:19;;;;;;;2.70;2.13;;;20.50;52.20;;;;;;4862947;28;87325;-89
2023/12/07 03:27:44;;;;;;;2.30;2.05;;;20.50;52.10;;;;;;4871860;28;88246;-88
2023/12/07 03:30:10;;;;;;;2.75;2.00;;;20.50;52.10;;;;;;4866121;28;89102;-89
2023/12/07 03:32:36;;;;;;;2.63;2.05;;;20.50;52.00;;;;;;4865970;28;88300;-89
2023/12/07 03:35:02;;;;;;;2.00;1.80;;;20.50;52.00;;;;;;4841212;28;87675;-88
2023/12/07 03:37:27;;;;;;;2.58;1.98;;;20.50;52.10;;;;;;4862495;28;88954;-89
2023/12/07 03:39:53;;;;;;;1.90;1.70;;;20.50;52.00;;;;;;4867545;28;88937;-87
2023/12/07 03:42:18;;;;;;;2.03;1.83;;;20.40;51.90;;;;;;4863772;28;93107;-88
2023/12/07 03:44:47;;;;;;;2.30;1.92;;;20.50;52.00;;;;;;4881465;28;88038;-87
2023/12/07 03:47:13;;;;;;;3.57;2.20;;;20.50;51.90;;;;;;4863177;28;90570;-87
2023/12/07 03:49:41;;;;;;;1.83;1.63;;;20.50;52.00;;;;;;4863156;28;87891;-89
2023/12/07 03:52:07;;;;;;;1.80;1.67;;;20.40;51.90;;;;;;4880315;28;87878;-87
2023/12/07 03:54:32;;;;;;;2.42;2.03;;;20.40;52.00;;;;;;4864953;28;87477;-88
2023/12/07 03:56:58;;;;;;;2.53;2.00;;;20.40;52.00;;;;;;4863109;28;87883;-87
2023/12/07 03:59:24;;;;;;;2.45;2.13;;;20.40;51.90;;;;;;4866203;28;90876;-87
2023/12/07 04:01:49;;;;;;;2.65;2.45;;;20.40;52.00;;;;;;4862291;28;88898;-88
2023/12/07 04:04:16;;;;;;;2.15;1.63;;;20.40;51.90;;;;;;4858702;28;88689;-88
2023/12/07 04:06:42;;;;;;;2.42;2.08;;;20.40;52.20;;;;;;4880687;28;87356;-86
2023/12/07 04:09:07;;;;;;;4.10;2.03;;;20.40;52.10;;;;;;4860789;28;88867;-86
2023/12/07 04:11:33;;;;;;;1.98;1.77;;;20.30;52.10;;;;;;4861135;28;91397;-88
2023/12/07 04:14:00;;;;;;;2.40;2.05;;;20.40;52.70;;;;;;4863571;28;87224;-88
2023/12/07 04:16:26;;;;;;;2.45;2.08;;;20.40;52.00;;;;;;4878142;28;87677;-88
2023/12/07 04:18:52;;;;;;;2.28;1.95;;;20.40;52.00;;;;;;4861697;28;89852;-86
2023/12/07 04:21:17;;;;;;;2.75;1.83;;;20.30;52.10;;;;;;4880152;28;87902;-88
2023/12/07 04:23:43;;;;;;;2.42;1.95;;;20.30;52.10;;;;;;4871789;28;87644;-89
2023/12/07 04:26:09;;;;;;;2.38;2.00;;;20.30;51.90;;;;;;4867198;28;88997;-89
2023/12/07 04:28:35;;;;;;;2.20;2.00;;;20.30;52.00;;;;;;4861956;28;90368;-88
2023/12/07 04:31:00;;;;;;;2.28;1.90;;;20.30;52.10;;;;;;4880016;28;88517;-87
2023/12/07 04:33:26;;;;;;;1.80;1.58;;;20.30;52.00;;;;;;4861320;28;87442;-86
2023/12/07 04:35:52;;;;;;;1.98;1.77;;;20.30;51.90;;;;;;4863296;28;89436;-86
2023/12/07 04:38:18;;;;;;;1.58;1.48;;;20.20;51.90;;;;;;4879948;28;90183;-87
2023/12/07 04:40:47;;;;;;;2.45;1.95;;;20.30;52.10;;;;;;4880939;28;88685;-87
2023/12/07 04:43:12;;;;;;;2.28;1.63;;;20.20;52.00;;;;;;4868851;28;87548;-88
2023/12/07 04:45:38;;;;;;;1.70;1.60;;;20.30;51.90;;;;;;4883554;28;88330;-88
2023/12/07 04:48:04;;;;;;;2.25;1.90;;;20.30;51.90;;;;;;4886371;28;87782;-89
2023/12/07 04:50:30;;;;;;;1.63;1.50;;;20.30;51.80;;;;;;4881362;28;87275;-87
2023/12/07 04:52:56;;;;;;;1.63;1.52;;;20.30;51.80;;;;;;4864840;28;88770;-87
2023/12/07 04:55:21;;;;;;;2.00;1.80;;;20.20;51.90;;;;;;4862605;28;87469;-87
2023/12/07 04:57:47;;;;;;;2.28;2.08;;;20.30;51.80;;;;;;4880713;28;88572;-87
2023/12/07 05:00:20;;;;;;;2.45;1.65;;;20.20;52.10;;;;;;4853685;28;88410;-87
2023/12/07 05:02:45;;;;;;;2.90;1.98;;;20.20;51.90;;;;;;4881757;28;87261;-87
2023/12/07 05:05:11;;;;;;;2.90;2.30;;;20.20;51.70;;;;;;4868548;28;87542;-89
2023/12/07 05:07:37;;;;;;;2.95;2.05;;;20.20;51.80;;;;;;4880450;28;87624;-82
2023/12/07 05:10:03;;;;;;;2.92;2.25;;;20.20;51.40;;;;;;4859809;28;88698;-83
2023/12/07 05:12:29;;;;;;;1.88;1.77;;;20.20;51.00;;;;;;4860308;28;88284;-83
2023/12/07 05:14:55;;;;;;;1.98;1.60;;;20.20;51.20;;;;;;4862584;28;89154;-83
2023/12/07 05:17:20;;;;;;;2.15;1.60;;;20.10;51.50;;;;;;4879174;28;88466;-83
2023/12/07 05:19:46;;;;;;;3.17;2.17;;;20.20;51.50;;;;;;4862001;28;91986;-82
2023/12/07 05:22:13;;;;;;;2.42;1.60;;;20.20;51.40;;;;;;4863446;28;87649;-82
2023/12/07 05:24:39;;;;;;;2.42;2.08;;;20.20;51.40;;;;;;4885112;28;87977;-83
2023/12/07 05:27:05;;;;;;;2.35;1.92;;;20.20;51.10;;;;;;4885147;28;90714;-83
2023/12/07 05:29:30;;;;;;;3.17;2.10;;;20.20;51.10;;;;;;4884242;28;87974;-83
2023/12/07 05:31:56;;;;;;;5.60;2.47;;;20.30;51.00;;;;;;4869458;28;87948;-86
2023/12/07 05:34:22;;;;;;;3.88;2.22;;;20.20;50.90;;;;;;4884332;28;86542;-86
2023/12/07 05:36:48;;;;;;;5.05;2.80;;;20.20;51.20;;;;;;4866549;28;91108;-86
2023/12/07 05:39:13;;;;;;;6.38;2.88;;;20.20;50.80;;;;;;4868230;28;89424;-85
2023/12/07 05:41:39;;;;;;;7.32;2.95;;;20.30;51.10;;;;;;4886391;28;88438;-86
2023/12/07 05:44:05;;;;;;;4.97;2.50;;;20.30;51.20;;;;;;4868018;28;88285;-85
2023/12/07 05:46:32;;;;;;;7.45;2.85;;;20.20;51.20;;;;;;4863976;28;90788;-87
2023/12/07 05:48:58;;;;;;;10.85;3.13;;;20.30;52.10;;;;;;4865656;28;89611;-88
2023/12/07 05:51:24;;;;;;;13.27;2.95;;;20.30;51.50;;;;;;4855205;28;87285;-87
2023/12/07 05:53:50;;;;;;;9.15;3.58;;;20.30;51.50;;;;;;4871644;28;89895;-89
2023/12/07 05:56:23;;;;;;;10.95;4.40;;;20.30;51.80;;;;;;4866898;28;90030;-88
2023/12/07 05:58:48;;;;;;;8.80;3.67;;;20.40;51.80;;;;;;4887299;28;88463;-85
2023/12/07 06:01:18;;;;;;;11.38;4.43;;;20.40;52.10;;;;;;4886244;28;87367;-88
2023/12/07 06:03:44;;;;;;;11.93;4.50;;;20.40;49.30;;;;;;4880169;28;87718;-90
2023/12/07 06:06:11;;;;;;;11.32;3.45;;;20.40;50.90;;;;;;4872562;28;92346;-88
2023/12/07 06:08:40;;;;;;;10.77;3.63;;;20.40;51.60;;;;;;4869429;28;92294;-89
2023/12/07 06:11:06;;;;;;;16.17;4.82;;;20.40;51.40;;;;;;4891965;28;87599;-88
2023/12/07 06:13:36;;;;;;;18.00;4.97;;;20.40;51.90;;;;;;4867207;28;87850;-85
2023/12/07 06:16:02;;;;;;;10.48;4.97;;;20.40;51.90;;;;;;4851285;28;89338;-82
2023/12/07 06:18:28;;;;;;;13.20;4.03;;;20.40;46.20;;;;;;4881513;28;89013;-87
2023/12/07 06:20:54;;;;;;;11.45;4.53;;;20.30;47.40;;;;;;4888810;28;87801;-85
2023/12/07 06:23:20;;;;;;;15.27;4.90;;;20.30;49.80;;;;;;4886140;28;86677;-83
2023/12/07 06:25:46;;;;;;;10.82;4.68;;;20.30;47.20;;;;;;4865657;28;88647;-88
2023/12/07 06:28:11;;;;;;;8.98;4.85;;;20.30;44.70;;;;;;4870696;28;89716;-84
2023/12/07 06:30:38;;;;;;;9.50;4.40;;;20.30;45.20;;;;;;4873043;28;88348;-89
2023/12/07 06:33:04;;;;;;;13.55;4.45;;;20.20;43.80;;;;;;4871016;28;90401;-85
2023/12/07 06:35:30;;;;;;;10.50;4.10;;;20.20;44.20;;;;;;4885623;28;87831;-86
2023/12/07 06:37:56;;;;;;;14.43;4.72;;;20.20;44.70;;;;;;4868517;28;90049;-88
2023/12/07 06:40:22;;;;;;;15.80;5.45;;;20.10;42.90;;;;;;4866713;28;87112;-86
2023/12/07 06:42:48;;;;;;;11.35;3.75;;;20.10;42.30;;;;;;4884527;28;87595;-88
2023/12/07 06:45:15;;;;;;;11.82;5.03;;;20.10;43.20;;;;;;4887376;28;89186;-89
2023/12/07 06:47:42;;;;;;;18.17;5.15;;;20.00;42.10;;;;;;4876429;28;91048;-90
2023/12/07 06:50:09;;;;;;;11.88;5.15;;;20.10;42.40;;;;;;4892290;28;87222;-86
2023/12/07 06:52:36;;;;;;;8.55;4.63;;;20.00;41.80;;;;;;4879363;28;90778;-91
2023/12/07 06:55:04;;;;;;;10.32;4.05;;;20.00;41.20;;;;;;4902976;28;90477;-85
2023/12/07 06:57:30;;;;;;;12.30;4.80;;;20.00;40.80;;;;;;4885350;28;89667;-91
2023/12/07 06:59:56;;;;;;;9.05;4.68;;;20.00;41.80;;;;;;4890505;28;86415;-92
2023/12/07 07:02:23;;;;;;;10.32;4.20;;;20.00;40.80;;;;;;4908251;28;86725;-93
2023/12/07 07:04:49;;;;;;;8.55;4.80;;;20.00;40.80;;;;;;4908216;28;87569;-92
2023/12/07 07:07:15;;;;;;;9.85;4.20;;;19.90;40.10;;;;;;4907865;28;86814;-93
2023/12/07 07:09:41;;;;;;;11.23;5.05;;;19.90;40.50;;;;;;4892822;28;86781;-90
2023/12/07 07:12:07;;;;;;;29.13;6.55;;;19.90;40.80;;;;;;4909931;28;86079;-84
2023/12/07 07:14:32;;;;;;;26.85;7.07;;;19.90;41.30;;;;;;4869827;28;96488;-85
2023/12/07 07:16:58;;;;;;;31.00;7.40;;;19.90;40.70;;;;;;4869082;28;87580;-87
2023/12/07 07:19:24;;;;;;;22.33;6.15;;;19.80;40.10;;;;;;4887769;28;88582;-87
2023/12/07 07:21:50;;;;;;;22.33;6.90;;;19.80;41.00;;;;;;4887789;28;88529;-85
2023/12/07 07:24:44;;;;;;;23.58;5.63;;;19.80;41.70;;;;;;4886820;28;91573;-84
2023/12/07 07:27:13;;;;;;;14.35;5.45;;;19.80;41.50;;;;;;4871602;28;88841;-85
2023/12/07 07:29:39;;;;;;;24.50;5.60;;;19.80;41.40;;;;;;4866781;28;87743;-83
2023/12/07 07:32:05;;;;;;;14.57;5.00;;;19.80;41.40;;;;;;4886664;28;87358;-86
2023/12/07 07:34:31;;;;;;;15.45;5.55;;;19.70;41.40;;;;;;4873134;28;89905;-87
2023/12/07 07:36:57;;;;;;;17.42;5.25;;;19.70;41.70;;;;;;4884735;28;87676;-86
2023/12/07 07:39:25;;;;;;;18.33;6.57;;;19.80;42.40;;;;;;4885758;28;87595;-85
2023/12/07 07:41:50;;;;;;;17.00;5.90;;;19.80;41.50;;;;;;4863461;28;87677;-86
2023/12/07 07:44:18;;;;;;;22.63;7.50;;;19.80;40.60;;;;;;4880579;28;91152;-85
2023/12/07 07:46:44;;;;;;;16.67;6.43;;;19.70;42.00;;;;;;4865469;28;92899;-87
2023/12/07 07:49:10;;;;;;;21.38;5.95;;;19.70;41.40;;;;;;4881376;28;87453;-90
2023/12/07 07:51:36;;;;;;;14.65;5.68;;;19.70;40.10;;;;;;4867195;28;87744;-93
2023/12/07 07:54:01;;;;;;;13.50;5.30;;;19.70;39.20;;;;;;4886438;28;88592;-89
2023/12/07 07:56:27;;;;;;;12.20;5.10;;;19.60;39.70;;;;;;4866225;28;90204;-86
2023/12/07 07:59:00;;;;;;;15.95;4.93;;;19.60;39.80;;;;;;4871116;28;87228;-89
2023/12/07 08:01:28;;;;;;;18.00;6.13;;;19.60;39.50;;;;;;4841192;28;88698;-89
2023/12/07 08:03:55;;;;;;;20.67;5.13;;;19.60;40.00;;;;;;4851377;28;90432;-88
2023/12/07 08:06:25;;;;;;;8.30;4.63;;;19.60;40.30;;;;;;4861395;28;89056;-87
2023/12/07 08:08:54;;;;;;;12.10;4.20;;;19.60;40.50;;;;;;4857496;28;88567;-89
2023/12/07 08:11:29;;;;;;;11.95;4.25;;;19.70;40.60;;;;;;4869139;28;89131;-90
2023/12/07 08:13:56;;;;;;;8.32;3.90;;;19.70;40.70;;;;;;4866778;28;88048;-89
2023/12/07 08:16:23;;;;;;;17.83;4.40;;;19.70;40.20;;;;;;4868028;28;88615;-89
2023/12/07 08:18:52;;;;;;;11.20;4.55;;;19.70;40.00;;;;;;4852497;28;87726;-87
2023/12/07 08:21:22;;;;;;;9.60;4.25;;;19.70;40.10;;;;;;4851517;28;87699;-85
2023/12/07 08:23:52;;;;;;;8.93;3.72;;;19.70;40.00;;;;;;4867887;28;87522;-87
2023/12/07 08:26:27;;;;;;;11.73;4.50;;;19.70;40.10;;;;;;4834175;28;90630;-88
2023/12/07 08:28:53;;;;;;;9.77;3.90;;;19.70;40.20;;;;;;4863492;28;87603;-90
2023/12/07 08:31:20;;;;;;;17.70;4.25;;;19.70;40.20;;;;;;4874630;28;87284;-90
2023/12/07 08:33:45;;;;;;;8.75;3.72;;;19.70;40.10;;;;;;4863160;28;90804;-83
2023/12/07 08:36:13;;;;;;;10.07;4.13;;;19.70;39.70;;;;;;4884130;28;88366;-92
2023/12/07 08:38:39;;;;;;;9.45;4.93;;;19.70;39.70;;;;;;4879783;28;87260;-82
2023/12/07 08:41:05;;;;;;;14.75;4.55;;;19.60;38.40;;;;;;4861859;28;90196;-84
2023/12/07 08:43:30;;;;;;;12.63;5.68;;;19.60;39.60;;;;;;4861291;28;88050;-84
2023/12/07 08:45:56;;;;;;;11.18;5.78;;;19.40;36.40;;;;;;4860160;28;90950;-80
2023/12/07 08:48:22;;;;;;;10.38;5.05;;;19.30;34.60;;;;;;4860251;28;87853;-83
2023/12/07 08:50:50;;;;;;;6.45;4.75;;;19.10;33.70;;;;;;4859559;28;87729;-82
2023/12/07 08:53:16;;;;;;;6.88;5.20;;;19.00;33.60;;;;;;4857243;28;89919;-85
2023/12/07 08:55:42;;;;;;;6.22;5.10;;;18.90;33.00;;;;;;4844975;28;91260;-84
2023/12/07 08:58:08;;;;;;;6.35;5.53;;;18.70;33.50;;;;;;4875461;28;88243;-84
2023/12/07 09:00:33;;;;;;;9.48;4.90;;;18.60;34.60;;;;;;4854550;28;89831;-86
2023/12/07 09:02:59;;;;;;;6.32;3.97;;;18.60;34.70;;;;;;4857316;28;89950;-80
2023/12/07 09:05:28;;;;;;;5.43;4.20;;;18.60;37.30;;;;;;4857206;28;89568;-83
2023/12/07 09:07:53;;;;;;;8.90;4.70;;;18.60;39.50;;;;;;4857433;28;88073;-81
2023/12/07 09:10:19;;;;;;;10.68;4.95;;;18.70;38.80;;;;;;4877526;28;87460;-82
2023/12/07 09:12:45;;;;;;;7.85;4.47;;;18.70;40.00;;;;;;4853905;28;90357;-84
2023/12/07 09:15:12;;;;;;;5.88;3.70;;;18.70;40.70;;;;;;4879468;28;88003;-85
2023/12/07 09:17:39;;;;;;;6.47;3.80;;;18.70;40.70;;;;;;4879641;28;87315;-85
2023/12/07 09:20:07;;;;;;;11.00;3.80;;;18.70;40.80;;;;;;4878075;28;87276;-82
2023/12/07 09:22:33;;;;;;;8.77;3.92;;;18.80;41.70;;;;;;4855066;28;92124;-85
2023/12/07 09:24:59;;;;;;;5.53;3.92;;;18.70;41.20;;;;;;4852234;28;88419;-84
2023/12/07 09:27:25;;;;;;;5.85;3.88;;;18.70;41.30;;;;;;4877804;28;87251;-82
2023/12/07 09:29:51;;;;;;;10.25;3.80;;;18.80;40.40;;;;;;4859179;28;89911;-86
2023/12/07 09:32:17;;;;;;;4.50;3.30;;;18.70;39.80;;;;;;4857165;28;90190;-86
2023/12/07 09:34:43;;;;;;;8.55;4.00;;;18.80;39.40;;;;;;4857913;28;90086;-85
2023/12/07 09:37:11;;;;;;;6.05;3.90;;;18.70;39.20;;;;;;4874631;28;87755;-81
2023/12/07 09:39:37;;;;;;;9.10;3.70;;;18.70;39.40;;;;;;4874536;28;87569;-81
2023/12/07 09:42:03;;;;;;;4.68;3.80;;;18.70;38.70;;;;;;4872082;28;87525;-84
2023/12/07 09:44:29;;;;;;;10.73;3.50;;;18.70;38.90;;;;;;4857835;28;91159;-85
2023/12/07 09:46:55;;;;;;;6.05;3.30;;;18.70;38.60;;;;;;4877150;28;87871;-83
2023/12/07 09:49:21;;;;;;;5.80;3.35;;;18.70;38.20;;;;;;4860195;28;89841;-85
2023/12/07 09:51:50;;;;;;;4.22;3.20;;;18.60;38.10;;;;;;4879818;28;88684;-87
2023/12/07 09:54:17;;;;;;;7.82;4.00;;;18.60;37.60;;;;;;4810665;28;88536;-86
2023/12/07 09:56:45;;;;;;;4.63;3.15;;;18.60;37.50;;;;;;4862879;28;87208;-86
2023/12/07 09:59:11;;;;;;;4.97;3.63;;;18.60;37.40;;;;;;4830179;28;87455;-85
2023/12/07 10:01:46;;;;;;;5.72;3.55;;;18.60;37.50;;;;;;4878798;28;88067;-85
2023/12/07 10:04:25;;;;;;;6.65;3.45;;;18.60;37.50;;;;;;4879136;28;90329;-87
2023/12/07 10:06:52;;;;;;;4.35;3.28;;;18.60;37.40;;;;;;4862126;28;87817;-87
2023/12/07 10:09:24;;;;;;;6.07;3.80;;;18.60;37.10;;;;;;4857012;28;87844;-87
2023/12/07 10:11:49;;;;;;;7.68;3.13;;;18.60;37.70;;;;;;4876313;28;91881;-86
2023/12/07 10:14:15;;;;;;;6.03;4.05;;;18.60;38.20;;;;;;4870019;28;91483;-83
2023/12/07 10:16:56;;;;;;;6.60;3.30;;;18.60;39.00;;;;;;4854477;28;87942;-87
2023/12/07 10:19:23;;;;;;;4.07;3.15;;;18.60;38.30;;;;;;4884691;28;87248;-90
2023/12/07 10:21:54;;;;;;;4.68;3.13;;;18.50;38.40;;;;;;4855962;28;88079;-88
2023/12/07 10:24:25;;;;;;;9.27;4.55;;;18.50;38.80;;;;;;4860641;28;91601;-85
2023/12/07 10:26:56;;;;;;;6.78;3.67;;;18.50;38.80;;;;;;4846637;28;87384;-83
2023/12/07 10:29:23;;;;;;;88.78;12.65;;;18.50;37.60;;;;;;4838687;28;88067;-84
2023/12/07 10:31:49;;;;;;;29.58;6.78;;;18.40;37.00;;;;;;4859040;28;88026;-80
2023/12/07 10:34:35;;;;;;;30.15;5.88;;;18.40;36.90;;;;;;4857842;28;91124;-85
2023/12/07 10:37:04;;;;;;;25.30;5.43;;;18.40;38.40;;;;;;4864401;28;89029;-83
2023/12/07 10:39:32;;;;;;;20.67;4.50;;;18.50;40.30;;;;;;4850600;28;91021;-85
2023/12/07 10:42:03;;;;;;;21.23;5.13;;;18.50;40.70;;;;;;4850742;28;89724;-87
2023/12/07 10:44:30;;;;;;;21.02;4.28;;;19.10;39.50;;;;;;4872174;28;88302;-82
2023/12/07 10:46:58;;;;;;;16.20;4.40;;;19.60;38.30;;;;;;4835083;28;87850;-84
2023/12/07 10:49:26;;;;;;;15.35;4.47;;;19.40;38.30;;;;;;4850085;28;88220;-85
2023/12/07 10:52:03;;;;;;;15.63;4.53;;;19.30;38.10;;;;;;4860862;28;88957;-83
2023/12/07 10:54:46;;;;;;;20.25;4.75;;;19.20;39.10;;;;;;4869256;28;88272;-79
2023/12/07 10:57:14;;;;;;;16.50;4.07;;;19.10;40.30;;;;;;4878837;28;87908;-88
2023/12/07 10:59:50;;;;;;;17.08;4.63;;;19.10;39.70;;;;;;4852450;28;89342;-85
2023/12/07 11:02:18;;;;;;;28.13;5.43;;;19.10;40.50;;;;;;4854050;28;89746;-82
2023/12/07 11:04:44;;;;;;;18.65;4.53;;;19.10;41.50;;;;;;4861342;28;90269;-80
2023/12/07 11:07:18;;;;;;;16.02;4.43;;;19.10;39.20;;;;;;4864186;28;88359;-79
2023/12/07 11:09:51;;;;;;;12.52;4.22;;;19.00;38.20;;;;;;4860065;28;90476;-85
2023/12/07 11:12:48;;;;;;;10.15;3.03;;;19.30;40.70;;;;;;4859396;28;91936;-88
2023/12/07 11:15:16;;;;;;;12.35;3.83;;;20.50;38.90;;;;;;4837541;28;89111;-86
2023/12/07 11:17:55;;;;;;;14.10;3.88;;;20.90;38.10;;;;;;4861839;28;87619;-85
2023/12/07 11:20:46;;;;;;;9.88;3.40;;;21.20;38.40;;;;;;4882060;28;88082;-85
2023/12/07 11:23:21;;;;;;;7.32;2.97;;;21.50;38.20;;;;;;4854043;28;89481;-84
2023/12/07 11:25:48;;;;;;;14.82;3.10;;;21.70;38.00;;;;;;4858389;28;89026;-85
2023/12/07 11:28:14;;;;;;;10.00;2.40;;;21.80;37.80;;;;;;4858654;28;88013;-85
2023/12/07 11:30:45;;;;;;;7.05;2.60;;;22.00;37.80;;;;;;4877308;28;87452;-86
2023/12/07 11:33:14;;;;;;;10.90;3.13;;;22.10;37.70;;;;;;4881455;28;89175;-85
2023/12/07 11:36:01;;;;;;;8.48;3.53;;;22.20;37.70;;;;;;4849269;28;91034;-89
2023/12/07 11:38:27;;;;;;;7.30;2.42;;;22.20;38.00;;;;;;4881575;28;87488;-86
2023/12/07 11:40:55;;;;;;;10.25;3.15;;;22.30;37.90;;;;;;4877819;28;86981;-88
2023/12/07 11:43:40;;;;;;;10.38;3.20;;;22.40;38.00;;;;;;4860696;28;89815;-90
2023/12/07 11:46:07;;;;;;;9.93;2.95;;;22.30;38.60;;;;;;4860288;28;90809;-85
2023/12/07 11:48:33;;;;;;;7.15;2.70;;;22.20;39.40;;;;;;4860950;28;87946;-83
2023/12/07 11:51:05;;;;;;;9.07;2.80;;;22.00;40.10;;;;;;4846233;28;88513;-84
2023/12/07 11:53:37;;;;;;;14.95;3.13;;;21.90;40.50;;;;;;4867852;28;89669;-84
2023/12/07 11:56:05;;;;;;;14.30;3.40;;;21.90;40.60;;;;;;4835480;28;92261;-85
2023/12/07 11:58:33;;;;;;;25.88;4.25;;;21.90;40.80;;;;;;4853577;28;91470;-85
2023/12/07 12:01:02;;;;;;;27.20;4.47;;;22.10;39.90;;;;;;4856254;28;89656;-85
2023/12/07 12:03:29;;;;;;;15.88;3.60;;;21.90;43.30;;;;;;4855627;28;90443;-85
2023/12/07 12:06:11;;;;;;;17.10;3.90;;;21.70;49.20;;;;;;4853389;28;89150;-85
2023/12/07 12:08:40;;;;;;;10.30;3.90;;;21.60;48.80;;;;;;4858519;28;87717;-86
2023/12/07 12:11:06;;;;;;;12.30;4.00;;;21.50;48.80;;;;;;4857829;28;90921;-86
2023/12/07 12:13:36;;;;;;;14.40;3.53;;;21.30;47.20;;;;;;4860969;28;91332;-89
2023/12/07 12:16:02;;;;;;;8.52;3.38;;;21.10;43.40;;;;;;4864133;28;90035;-87
2023/12/07 12:18:28;;;;;;;15.50;4.32;;;21.00;41.50;;;;;;4873915;28;88688;-85
2023/12/07 12:20:57;;;;;;;13.52;4.68;;;20.90;40.90;;;;;;4853082;28;89824;-84
2023/12/07 12:23:25;;;;;;;9.85;3.85;;;20.80;40.70;;;;;;4858835;28;89064;-87
2023/12/07 12:25:51;;;;;;;7.60;3.60;;;20.70;41.20;;;;;;4872725;28;87888;-87
2023/12/07 12:28:32;;;;;;;12.52;4.53;;;20.70;40.80;;;;;;4857060;28;87798;-86
2023/12/07 12:31:01;;;;;;;7.40;3.80;;;20.60;40.60;;;;;;4859560;28;88743;-88
2023/12/07 12:33:26;;;;;;;9.10;3.60;;;20.60;40.10;;;;;;4861520;28;88330;-89
2023/12/07 12:36:05;;;;;;;8.15;3.78;;;20.50;40.10;;;;;;4847961;28;89663;-85
2023/12/07 12:38:33;;;;;;;6.85;3.47;;;20.50;39.80;;;;;;4858944;28;87281;-87
2023/12/07 12:40:59;;;;;;;9.57;4.05;;;20.40;39.90;;;;;;4862602;28;87701;-88
2023/12/07 12:43:28;;;;;;;8.25;3.83;;;20.40;39.20;;;;;;4863104;28;89965;-87
2023/12/07 12:45:54;;;;;;;7.10;3.63;;;20.30;39.40;;;;;;4865954;28;88338;-87